createdAt,value
2018-06-09T00:02:02.082Z,24.83
2018-06-09T00:04:36.019Z,22.20
2018-06-09T00:07:09.954Z,23.17
2018-06-09T00:09:43.762Z,27.20
2018-06-09T00:12:17.703Z,24.30
2018-06-09T00:14:51.491Z,23.50
2018-06-09T00:17:25.242Z,20.37
2018-06-09T00:19:59.226Z,22.67
2018-06-09T00:22:33.218Z,22.47
2018-06-09T00:25:07.223Z,28.60
2018-06-09T00:27:41.051Z,25.00
2018-06-09T00:30:15.782Z,24.73
2018-06-09T00:32:49.766Z,23.97
2018-06-09T00:35:23.676Z,23.20
2018-06-09T00:37:57.973Z,22.80
2018-06-09T00:40:32.019Z,25.67
2018-06-09T00:43:05.962Z,29.97
2018-06-09T00:45:39.896Z,24.93
2018-06-09T00:48:13.867Z,24.33
2018-06-09T00:50:47.803Z,25.17
2018-06-09T00:53:21.900Z,23.40
2018-06-09T00:56:07.028Z,21.63
2018-06-09T00:58:40.828Z,23.57
2018-06-09T01:01:15.019Z,22.20
2018-06-09T01:03:49.008Z,22.93
2018-06-09T01:06:22.982Z,26.50
2018-06-09T01:08:56.959Z,24.67
2018-06-09T01:11:30.740Z,24.50
2018-06-09T01:14:04.816Z,25.53
2018-06-09T01:16:38.715Z,24.83
2018-06-09T01:19:12.704Z,23.53
2018-06-09T01:21:46.516Z,20.83
2018-06-09T01:24:20.406Z,20.50
2018-06-09T01:26:54.200Z,20.93
2018-06-09T01:29:28.165Z,21.47
2018-06-09T01:32:02.291Z,23.83
2018-06-09T01:34:36.127Z,26.30
2018-06-09T01:37:10.159Z,21.20
2018-06-09T01:39:43.917Z,31.20
2018-06-09T01:42:17.865Z,28.67
2018-06-09T01:44:51.783Z,30.23
2018-06-09T01:47:26.034Z,30.27
2018-06-09T01:49:59.925Z,28.07
2018-06-09T01:52:33.839Z,29.03
2018-06-09T01:55:07.823Z,27.93
2018-06-09T01:57:41.812Z,21.73
2018-06-09T02:00:15.824Z,29.60
2018-06-09T02:02:49.896Z,29.83
2018-06-09T02:05:23.679Z,26.70
2018-06-09T02:09:22.006Z,23.07
2018-06-09T02:11:55.881Z,22.93
2018-06-09T02:14:29.818Z,21.07
2018-06-09T02:17:03.778Z,21.10
2018-06-09T02:19:37.719Z,21.43
2018-06-09T02:22:11.680Z,31.03
2018-06-09T02:24:45.596Z,21.67
2018-06-09T02:27:19.470Z,20.43
2018-06-09T02:29:53.378Z,24.73
2018-06-09T02:32:27.491Z,22.47
2018-06-09T02:35:01.379Z,25.17
2018-06-09T02:37:35.357Z,24.37
2018-06-09T02:40:09.374Z,23.60
2018-06-09T02:42:43.183Z,21.33
2018-06-09T02:45:17.001Z,19.57
2018-06-09T02:47:50.929Z,23.70
2018-06-09T02:50:24.924Z,23.70
2018-06-09T02:52:58.739Z,22.40
2018-06-09T02:55:32.598Z,21.20
2018-06-09T02:58:06.467Z,25.23
2018-06-09T03:00:40.307Z,25.03
2018-06-09T03:03:14.239Z,21.20
2018-06-09T03:05:48.248Z,22.90
2018-06-09T03:08:22.220Z,27.43
2018-06-09T03:10:56.041Z,24.57
2018-06-09T03:13:29.884Z,23.33
2018-06-09T03:16:03.883Z,25.47
2018-06-09T03:18:37.753Z,25.23
2018-06-09T03:21:12.156Z,24.17
2018-06-09T03:23:46.033Z,23.33
2018-06-09T03:26:19.854Z,24.33
2018-06-09T03:28:53.772Z,23.20
2018-06-09T03:31:27.699Z,22.13
2018-06-09T03:34:02.048Z,27.43
2018-06-09T03:36:36.088Z,19.40
2018-06-09T03:39:10.113Z,25.70
2018-06-09T03:41:44.124Z,20.00
2018-06-09T03:44:18.053Z,22.60
2018-06-09T03:46:51.993Z,26.43
2018-06-09T03:49:25.757Z,25.33
2018-06-09T03:51:59.804Z,39.07
2018-06-09T03:54:33.786Z,26.90
2018-06-09T03:57:07.737Z,25.87
2018-06-09T03:59:41.790Z,35.47
2018-06-09T04:02:15.656Z,36.10
2018-06-09T04:04:49.469Z,28.93
2018-06-09T04:07:23.303Z,27.73
2018-06-09T04:09:57.209Z,28.90
2018-06-09T04:12:31.268Z,28.00
2018-06-09T04:15:05.153Z,29.87
2018-06-09T04:17:39.024Z,28.97
2018-06-09T04:20:13.070Z,30.43
2018-06-09T04:22:47.198Z,35.20
2018-06-09T04:25:22.720Z,33.80
2018-06-09T04:27:57.084Z,31.80
2018-06-09T04:31:55.444Z,35.23
2018-06-09T04:34:29.396Z,28.70
2018-06-09T04:37:06.226Z,32.37
2018-06-09T04:39:40.681Z,27.40
2018-06-09T04:42:16.709Z,25.73
2018-06-09T04:44:51.269Z,36.87
2018-06-09T04:47:25.251Z,65.17
2018-06-09T04:49:59.269Z,41.23
2018-06-09T04:52:33.467Z,32.37
2018-06-09T04:55:07.661Z,34.07
2018-06-09T04:57:41.626Z,29.20
2018-06-09T05:00:15.638Z,25.23
2018-06-09T05:02:49.832Z,26.27
2018-06-09T05:05:23.775Z,28.70
2018-06-09T05:07:57.736Z,25.70
2018-06-09T05:10:33.404Z,25.77
2018-06-09T05:13:07.384Z,31.50
2018-06-09T05:15:41.286Z,23.07
2018-06-09T05:18:15.237Z,34.73
2018-06-09T05:20:49.313Z,23.90
2018-06-09T05:23:24.451Z,23.23
2018-06-09T05:25:58.811Z,22.10
2018-06-09T05:28:32.708Z,25.97
2018-06-09T05:31:06.825Z,19.67
2018-06-09T05:33:40.613Z,21.83
2018-06-09T05:36:16.513Z,24.10
2018-06-09T05:38:50.551Z,21.33
2018-06-09T05:41:28.213Z,21.37
2018-06-09T05:44:03.251Z,21.93
2018-06-09T05:46:37.215Z,27.00
2018-06-09T05:49:11.225Z,23.47
2018-06-09T05:51:45.280Z,22.93
2018-06-09T05:54:19.121Z,22.97
2018-06-09T05:56:52.998Z,27.27
2018-06-09T05:59:26.924Z,22.67
2018-06-09T06:02:01.086Z,23.30
2018-06-09T06:04:34.912Z,46.47
2018-06-09T06:07:08.758Z,83.13
2018-06-09T06:09:42.964Z,26.53
2018-06-09T06:12:17.858Z,23.70
2018-06-09T06:14:51.852Z,24.17
2018-06-09T06:17:25.924Z,22.10
2018-06-09T06:19:59.867Z,24.03
2018-06-09T06:22:33.731Z,22.50
2018-06-09T06:25:07.647Z,23.77
2018-06-09T06:27:41.572Z,21.73
2018-06-09T06:30:15.599Z,35.03
2018-06-09T06:32:49.546Z,23.70
2018-06-09T06:35:23.530Z,27.63
2018-06-09T06:37:57.655Z,22.20
2018-06-09T06:40:31.595Z,25.27
2018-06-09T06:43:06.475Z,22.20
2018-06-09T06:45:40.437Z,23.37
2018-06-09T06:48:14.209Z,28.27
2018-06-09T06:50:48.035Z,23.80
2018-06-09T06:53:21.972Z,20.70
2018-06-09T06:55:55.927Z,22.23
2018-06-09T06:58:30.041Z,20.33
2018-06-09T07:01:03.836Z,18.97
2018-06-09T07:03:37.771Z,19.60
2018-06-09T07:06:11.517Z,18.13
2018-06-09T07:08:45.309Z,17.53
2018-06-09T07:11:19.122Z,21.37
2018-06-09T07:13:54.534Z,17.20
2018-06-09T07:16:28.560Z,16.40
2018-06-09T07:19:02.888Z,17.33
2018-06-09T07:21:36.718Z,20.40
2018-06-09T07:24:10.684Z,19.20
2018-06-09T07:26:44.635Z,23.10
2018-06-09T07:29:18.632Z,16.77
2018-06-09T07:31:52.501Z,20.67
2018-06-09T07:34:26.559Z,16.23
2018-06-09T07:37:00.568Z,18.30
2018-06-09T07:39:35.659Z,19.30
2018-06-09T07:42:09.844Z,16.10
2018-06-09T07:44:43.931Z,14.47
2018-06-09T07:47:17.815Z,13.70
2018-06-09T07:49:51.665Z,12.93
2018-06-09T07:52:25.510Z,12.30
2018-06-09T07:54:59.425Z,12.33
2018-06-09T07:57:33.497Z,14.50
2018-06-09T08:00:07.595Z,17.40
2018-06-09T08:02:41.503Z,14.07
2018-06-09T08:05:15.412Z,12.27
2018-06-09T08:07:49.311Z,15.37
2018-06-09T08:10:23.307Z,13.50
2018-06-09T08:12:57.258Z,12.67
2018-06-09T08:15:37.395Z,12.93
2018-06-09T08:18:12.597Z,12.53
2018-06-09T08:20:48.475Z,11.47
2018-06-09T08:23:22.940Z,11.53
2018-06-09T08:25:57.016Z,12.27
2018-06-09T08:28:30.917Z,11.90
2018-06-09T08:31:05.133Z,7.97
2018-06-09T08:33:39.079Z,7.20
2018-06-09T08:36:13.167Z,7.10
2018-06-09T08:38:47.064Z,8.53
2018-06-09T08:41:21.186Z,8.30
2018-06-09T08:43:54.988Z,11.90
2018-06-09T08:46:28.992Z,7.50
2018-06-09T08:49:02.868Z,11.03
2018-06-09T08:51:36.829Z,15.90
2018-06-09T08:54:10.686Z,7.40
2018-06-09T08:56:44.471Z,7.60
2018-06-09T08:59:18.294Z,8.47
2018-06-09T09:01:52.331Z,7.17
2018-06-09T09:04:26.166Z,8.83
2018-06-09T09:07:00.084Z,9.73
2018-06-09T09:09:33.892Z,10.97
2018-06-09T09:12:07.840Z,7.57
2018-06-09T09:14:41.738Z,7.60
2018-06-09T09:17:15.556Z,12.27
2018-06-09T09:19:49.392Z,8.47
2018-06-09T09:22:23.553Z,7.93
2018-06-09T09:24:57.357Z,11.70
2018-06-09T09:27:31.657Z,8.70
2018-06-09T09:30:05.629Z,10.83
2018-06-09T09:32:39.515Z,7.40
2018-06-09T09:35:13.366Z,7.70
2018-06-09T09:37:47.276Z,16.57
2018-06-09T09:40:21.095Z,7.20
2018-06-09T09:42:55.240Z,9.63
2018-06-09T09:45:29.137Z,8.23
2018-06-09T09:48:03.128Z,7.30
2018-06-09T09:50:37.015Z,8.70
2018-06-09T09:53:10.883Z,8.93
2018-06-09T09:55:38.743Z,9.67
2018-06-09T09:58:06.589Z,10.90
2018-06-09T10:00:39.510Z,8.93
2018-06-09T10:03:07.557Z,9.63
2018-06-09T10:05:35.410Z,9.33
2018-06-09T10:08:03.556Z,11.40
2018-06-09T10:10:31.413Z,14.40
2018-06-09T10:12:59.231Z,20.43
2018-06-09T10:15:27.175Z,7.73
2018-06-09T10:17:55.011Z,7.37
2018-06-09T10:20:22.862Z,8.13
2018-06-09T10:22:50.733Z,10.70
2018-06-09T10:25:18.643Z,10.87
2018-06-09T10:27:46.433Z,9.57
2018-06-09T10:30:16.138Z,7.77
2018-06-09T10:32:43.993Z,14.10
2018-06-09T10:35:11.805Z,12.60
2018-06-09T10:37:39.721Z,7.77
2018-06-09T10:40:07.568Z,10.83
2018-06-09T10:42:35.410Z,10.27
2018-06-09T10:45:03.558Z,7.53
2018-06-09T10:47:31.398Z,7.50
2018-06-09T10:49:59.379Z,8.30
2018-06-09T10:52:27.391Z,9.57
2018-06-09T10:54:55.212Z,7.63
2018-06-09T10:57:23.237Z,8.57
2018-06-09T10:59:51.087Z,8.03
2018-06-09T11:02:18.927Z,9.50
2018-06-09T11:04:46.724Z,9.47
2018-06-09T11:07:14.569Z,12.83
2018-06-09T11:09:42.397Z,9.50
2018-06-09T11:12:10.213Z,16.10
2018-06-09T11:14:38.129Z,15.90
2018-06-09T11:17:05.931Z,8.97
2018-06-09T11:19:33.770Z,8.83
2018-06-09T11:22:01.637Z,10.10
2018-06-09T11:24:29.538Z,7.90
2018-06-09T11:26:57.280Z,10.77
2018-06-09T11:29:25.465Z,11.93
2018-06-09T11:31:53.287Z,8.80
2018-06-09T11:34:21.126Z,11.07
2018-06-09T11:36:49.035Z,12.83
2018-06-09T11:39:16.835Z,8.93
2018-06-09T11:41:44.919Z,13.77
2018-06-09T11:44:12.758Z,11.93
2018-06-09T11:46:40.774Z,8.37
2018-06-09T11:49:08.613Z,9.03
2018-06-09T11:51:36.478Z,11.23
2018-06-09T11:54:04.321Z,7.97
2018-06-09T11:56:32.153Z,11.53
2018-06-09T11:59:00.054Z,8.63
2018-06-09T12:01:27.974Z,9.90
2018-06-09T12:03:55.871Z,9.73
2018-06-09T12:06:23.986Z,10.13
2018-06-09T12:08:51.834Z,9.33
2018-06-09T12:11:19.663Z,18.13
2018-06-09T12:13:47.528Z,11.07
2018-06-09T12:16:15.384Z,8.20
2018-06-09T12:18:43.211Z,7.53
2018-06-09T12:21:11.427Z,8.40
2018-06-09T12:23:39.243Z,9.10
2018-06-09T12:26:07.077Z,12.50
2018-06-09T12:28:34.952Z,10.23
2018-06-09T12:31:02.789Z,11.77
2018-06-09T12:33:30.633Z,7.73
2018-06-09T12:35:58.495Z,10.40
2018-06-09T12:38:26.431Z,10.67
2018-06-09T12:40:54.572Z,14.13
2018-06-09T12:43:22.521Z,16.43
2018-06-09T12:45:50.472Z,14.27
2018-06-09T12:48:18.370Z,10.07
2018-06-09T12:50:46.222Z,12.13
2018-06-09T12:53:14.222Z,15.13
2018-06-09T12:55:42.027Z,10.27
2018-06-09T12:58:09.867Z,9.87
2018-06-09T13:00:37.691Z,13.97
2018-06-09T13:03:05.526Z,9.43
2018-06-09T13:05:33.434Z,8.90
2018-06-09T13:08:01.532Z,10.40
2018-06-09T13:10:29.478Z,10.50
2018-06-09T13:12:57.331Z,13.50
2018-06-09T13:15:25.164Z,9.10
2018-06-09T13:17:53.123Z,8.40
2018-06-09T13:20:21.085Z,11.60
2018-06-09T13:22:48.910Z,14.67
2018-06-09T13:25:16.747Z,16.23
2018-06-09T13:27:44.682Z,18.47
2018-06-09T13:30:12.710Z,17.40
2018-06-09T13:32:40.996Z,15.20
2018-06-09T13:35:08.908Z,16.87
2018-06-09T13:37:36.704Z,14.07
2018-06-09T13:40:05.862Z,14.17
2018-06-09T13:42:33.710Z,22.63
2018-06-09T13:45:01.691Z,34.13
2018-06-09T13:47:29.498Z,16.17
2018-06-09T13:49:57.452Z,17.80
2018-06-09T13:52:25.473Z,16.17
2018-06-09T13:54:53.280Z,13.50
2018-06-09T13:57:21.254Z,15.47
2018-06-09T13:59:49.191Z,12.57
2018-06-09T14:02:17.122Z,9.13
2018-06-09T14:04:44.993Z,16.60
2018-06-09T14:07:12.807Z,11.03
2018-06-09T14:09:40.641Z,13.20
2018-06-09T14:12:08.711Z,17.90
2018-06-09T14:14:36.543Z,15.10
2018-06-09T14:17:04.382Z,16.80
2018-06-09T14:19:32.246Z,21.53
2018-06-09T14:22:00.056Z,14.63
2018-06-09T14:24:28.126Z,14.70
2018-06-09T14:26:56.114Z,13.97
2018-06-09T14:29:23.979Z,9.97
2018-06-09T14:31:51.852Z,12.40
2018-06-09T14:34:19.873Z,18.27
2018-06-09T14:36:47.691Z,11.63
2018-06-09T14:39:15.516Z,16.73
2018-06-09T14:41:43.719Z,15.97
2018-06-09T14:44:11.582Z,17.70
2018-06-09T14:46:39.461Z,13.73
2018-06-09T14:49:10.528Z,12.17
2018-06-09T14:51:38.652Z,13.27
2018-06-09T14:54:06.593Z,12.83
2018-06-09T14:56:34.751Z,13.67
2018-06-09T14:59:02.695Z,21.27
2018-06-09T15:01:30.650Z,12.27
2018-06-09T15:03:58.626Z,17.53
2018-06-09T15:07:50.961Z,15.00
2018-06-09T15:10:18.931Z,12.63
2018-06-09T15:12:46.865Z,14.80
2018-06-09T15:15:14.798Z,11.97
2018-06-09T15:17:42.809Z,12.33
2018-06-09T15:20:10.725Z,12.20
2018-06-09T15:22:38.718Z,11.50
2018-06-09T15:25:06.674Z,11.10
2018-06-09T15:27:34.616Z,20.00
2018-06-09T15:30:02.578Z,15.77
2018-06-09T15:32:30.545Z,17.53
2018-06-09T15:34:58.497Z,10.03
2018-06-09T15:37:41.451Z,17.80
2018-06-09T15:40:09.420Z,14.53
2018-06-09T15:42:37.330Z,12.80
2018-06-09T15:45:05.307Z,15.93
2018-06-09T15:47:33.260Z,21.13
2018-06-09T15:50:01.450Z,13.50
2018-06-09T15:52:29.527Z,24.87
2018-06-09T15:54:57.745Z,16.47
2018-06-09T15:57:25.715Z,11.70
2018-06-09T15:59:53.826Z,14.80
2018-06-09T16:02:21.845Z,16.23
2018-06-09T16:04:49.791Z,14.83
2018-06-09T16:07:17.748Z,13.87
2018-06-09T16:09:45.670Z,18.70
2018-06-09T16:12:13.579Z,14.23
2018-06-09T16:14:41.548Z,14.10
2018-06-09T16:17:09.466Z,17.90
2018-06-09T16:19:37.374Z,20.17
2018-06-09T16:22:05.414Z,15.50
2018-06-09T16:24:33.455Z,20.00
2018-06-09T16:27:01.365Z,22.57
2018-06-09T16:29:29.367Z,14.00
2018-06-09T16:31:57.289Z,18.00
2018-06-09T16:34:25.211Z,16.47
2018-06-09T16:36:53.156Z,21.47
2018-06-09T16:39:21.101Z,16.43
2018-06-09T16:41:49.010Z,16.30
2018-06-09T16:44:17.029Z,16.80
2018-06-09T16:46:44.961Z,90.00
2018-06-09T16:49:12.876Z,51.90
2018-06-09T16:51:40.805Z,22.00
2018-06-09T16:54:12.252Z,19.27
2018-06-09T16:56:40.167Z,16.23
2018-06-09T16:59:08.111Z,16.40
2018-06-09T17:01:36.042Z,20.30
2018-06-09T17:04:03.963Z,18.83
2018-06-09T17:06:32.016Z,21.93
2018-06-09T17:08:59.964Z,69.33
2018-06-09T17:11:27.891Z,26.90
2018-06-09T17:13:55.871Z,27.43
2018-06-09T17:16:23.975Z,17.97
2018-06-09T17:18:51.900Z,20.93
2018-06-09T17:21:19.849Z,15.33
2018-06-09T17:23:47.766Z,19.20
2018-06-09T17:26:15.721Z,13.07
2018-06-09T17:28:43.739Z,19.90
2018-06-09T17:31:11.665Z,12.40
2018-06-09T17:33:39.591Z,17.03
2018-06-09T17:36:07.610Z,14.87
2018-06-09T17:38:35.546Z,21.87
2018-06-09T17:41:03.467Z,13.50
2018-06-09T17:43:31.871Z,15.43
2018-06-09T17:45:59.814Z,17.27
2018-06-09T17:48:27.723Z,17.53
2018-06-09T17:50:55.884Z,17.53
2018-06-09T17:53:23.901Z,27.37
2018-06-09T17:55:51.942Z,20.57
2018-06-09T17:58:20.437Z,20.03
2018-06-09T18:00:48.371Z,13.37
2018-06-09T18:03:16.342Z,29.33
2018-06-09T18:05:44.302Z,15.93
2018-06-09T18:08:12.347Z,17.10
2018-06-09T18:10:40.332Z,17.37
2018-06-09T18:13:08.541Z,24.07
2018-06-09T18:15:39.834Z,16.43
2018-06-09T18:18:07.765Z,20.33
2018-06-09T18:20:35.730Z,19.37
2018-06-09T18:23:03.744Z,15.53
2018-06-09T18:25:31.682Z,23.70
2018-06-09T18:27:59.674Z,19.43
2018-06-09T18:30:27.606Z,18.27
2018-06-09T18:32:55.519Z,11.20
2018-06-09T18:35:23.599Z,13.33
2018-06-09T18:37:51.528Z,16.80
2018-06-09T18:40:19.426Z,19.93
2018-06-09T18:42:47.399Z,13.80
2018-06-09T18:45:15.328Z,13.53
2018-06-09T18:47:43.274Z,16.93
2018-06-09T18:50:11.264Z,15.80
2018-06-09T18:52:39.188Z,21.67
2018-06-09T18:55:07.119Z,19.57
2018-06-09T18:57:40.384Z,16.60
2018-06-09T19:00:08.309Z,37.43
2018-06-09T19:02:36.262Z,16.33
2018-06-09T19:05:04.548Z,17.40
2018-06-09T19:07:32.491Z,15.87
2018-06-09T19:10:00.418Z,14.97
2018-06-09T19:12:28.378Z,17.87
2018-06-09T19:14:56.333Z,20.63
2018-06-09T19:17:24.288Z,23.93
2018-06-09T19:19:52.452Z,18.33
2018-06-09T19:22:20.463Z,11.63
2018-06-09T19:24:48.652Z,14.40
2018-06-09T19:27:16.664Z,23.70
2018-06-09T19:29:44.888Z,16.93
2018-06-09T19:32:12.859Z,17.27
2018-06-09T19:34:40.855Z,16.10
2018-06-09T19:37:09.788Z,17.37
2018-06-09T19:39:37.760Z,15.20
2018-06-09T19:42:05.807Z,20.47
2018-06-09T19:44:33.769Z,16.83
2018-06-09T19:47:01.698Z,19.87
2018-06-09T19:49:29.694Z,18.77
2018-06-09T19:51:57.714Z,15.97
2018-06-09T19:54:25.704Z,14.23
2018-06-09T19:56:53.724Z,13.70
2018-06-09T19:59:27.925Z,15.73
2018-06-09T20:02:02.479Z,14.43
2018-06-09T20:04:36.505Z,16.83
2018-06-09T20:07:10.573Z,18.20
2018-06-09T20:09:44.697Z,18.40
2018-06-09T20:12:18.909Z,16.70
2018-06-09T20:14:52.917Z,19.83
2018-06-09T20:17:27.034Z,16.93
2018-06-09T20:20:01.001Z,16.37
2018-06-09T20:22:35.024Z,17.40
2018-06-09T20:25:09.129Z,18.27
2018-06-09T20:27:43.326Z,16.93
2018-06-09T20:30:17.384Z,15.40
2018-06-09T20:32:51.575Z,15.23
2018-06-09T20:35:25.818Z,16.47
2018-06-09T20:37:59.919Z,16.17
2018-06-09T20:40:33.811Z,17.03
2018-06-09T20:43:07.857Z,15.03
2018-06-09T20:45:42.203Z,17.43
2018-06-09T20:48:16.356Z,15.67
2018-06-09T20:50:50.520Z,16.80
2018-06-09T20:53:24.695Z,15.77
2018-06-09T20:55:58.913Z,15.77
2018-06-09T20:58:39.283Z,14.43
2018-06-09T21:01:13.356Z,11.50
2018-06-09T21:03:47.319Z,14.30
2018-06-09T21:06:21.405Z,15.63
2018-06-09T21:08:55.375Z,17.60
2018-06-09T21:11:29.731Z,13.43
2018-06-09T21:14:03.874Z,44.57
2018-06-09T21:16:37.914Z,11.13
2018-06-09T21:19:12.020Z,13.00
2018-06-09T21:21:46.041Z,11.30
2018-06-09T21:24:20.004Z,11.43
2018-06-09T21:26:59.427Z,11.13
2018-06-09T21:29:38.256Z,12.17
2018-06-09T21:32:16.798Z,11.00
2018-06-09T21:35:04.642Z,16.20
2018-06-09T21:37:42.560Z,16.20
2018-06-09T21:40:21.119Z,10.23
2018-06-09T21:43:00.741Z,16.00
2018-06-09T21:45:40.410Z,13.30
2018-06-09T21:48:14.447Z,12.30
2018-06-09T21:50:49.128Z,12.27
2018-06-09T21:53:23.190Z,10.80
2018-06-09T21:56:00.692Z,9.63
2018-06-09T21:58:34.767Z,10.80
2018-06-09T22:01:08.967Z,11.37
2018-06-09T22:03:43.083Z,14.53
2018-06-09T22:06:17.143Z,9.93
2018-06-09T22:08:51.253Z,13.50
2018-06-09T22:11:25.456Z,16.10
2018-06-09T22:13:59.600Z,9.47
2018-06-09T22:16:33.642Z,9.67
2018-06-09T22:19:07.565Z,12.20
2018-06-09T22:21:41.735Z,10.53
2018-06-09T22:24:15.820Z,10.63
2018-06-09T22:26:49.763Z,13.23
2018-06-09T22:29:23.894Z,16.83
2018-06-09T22:31:57.963Z,17.70
2018-06-09T22:34:31.980Z,14.50
2018-06-09T22:37:06.027Z,12.03
2018-06-09T22:39:40.067Z,12.30
2018-06-09T22:42:14.144Z,12.40
2018-06-09T22:44:48.076Z,13.17
2018-06-09T22:47:23.894Z,12.47
2018-06-09T22:49:58.417Z,12.50
2018-06-09T22:52:32.724Z,14.13
2018-06-09T22:55:06.746Z,16.17
2018-06-09T22:57:40.834Z,13.30
2018-06-09T23:00:51.408Z,14.70
2018-06-09T23:03:25.559Z,17.37
2018-06-09T23:05:59.615Z,16.43
2018-06-09T23:08:33.852Z,17.03
2018-06-09T23:11:07.879Z,15.47
2018-06-09T23:13:41.888Z,14.47
2018-06-09T23:16:15.900Z,13.77
2018-06-09T23:18:49.975Z,14.10
2018-06-09T23:21:24.133Z,18.57
2018-06-09T23:23:58.347Z,23.00
2018-06-09T23:26:32.336Z,20.03
2018-06-09T23:29:06.738Z,16.63
2018-06-09T23:31:40.855Z,20.00
2018-06-09T23:34:15.008Z,19.03
2018-06-09T23:36:49.009Z,18.13
2018-06-09T23:39:23.058Z,17.83
2018-06-09T23:41:57.363Z,16.80
2018-06-09T23:44:31.501Z,20.17
2018-06-09T23:47:05.570Z,16.37
2018-06-09T23:49:40.019Z,19.73
2018-06-09T23:52:14.107Z,15.33
2018-06-09T23:54:48.094Z,16.67
2018-06-09T23:57:22.216Z,16.83
2018-06-09T23:59:56.223Z,16.17
